sensor_id;sensor_type;location;lat;lon;timestamp;temperature;humidity
22073;DHT22;11202;50.916;4.698;2022-10-16T00:00:43;14.60;99.90
22073;DHT22;11202;50.916;4.698;2022-10-16T00:03:10;14.60;99.90
22073;DHT22;11202;50.916;4.698;2022-10-16T00:05:42;14.50;99.90
22073;DHT22;11202;50.916;4.698;2022-10-16T00:08:11;14.50;99.90
22073;DHT22;11202;50.916;4.698;2022-10-16T00:10:40;14.40;99.90
22073;DHT22;11202;50.916;4.698;2022-10-16T00:13:06;14.40;99.90
22073;DHT22;11202;50.916;4.698;2022-10-16T00:15:34;14.30;99.90
22073;DHT22;11202;50.916;4.698;2022-10-16T00:18:02;14.40;99.90
22073;DHT22;11202;50.916;4.698;2022-10-16T00:20:28;14.30;99.90
22073;DHT22;11202;50.916;4.698;2022-10-16T00:22:54;14.30;99.90
22073;DHT22;11202;50.916;4.698;2022-10-16T00:25:19;14.30;99.90
22073;DHT22;11202;50.916;4.698;2022-10-16T00:27:45;14.30;99.90
22073;DHT22;11202;50.916;4.698;2022-10-16T00:30:14;14.30;99.90
22073;DHT22;11202;50.916;4.698;2022-10-16T00:32:40;14.30;99.90
22073;DHT22;11202;50.916;4.698;2022-10-16T00:35:06;14.20;99.90
22073;DHT22;11202;50.916;4.698;2022-10-16T00:37:32;14.10;99.90
22073;DHT22;11202;50.916;4.698;2022-10-16T00:39:58;14.20;99.90
22073;DHT22;11202;50.916;4.698;2022-10-16T00:42:24;14.20;99.90
22073;DHT22;11202;50.916;4.698;2022-10-16T00:44:55;14.20;99.90
22073;DHT22;11202;50.916;4.698;2022-10-16T00:47:28;14.10;99.90
22073;DHT22;11202;50.916;4.698;2022-10-16T00:50:18;14.10;99.90
22073;DHT22;11202;50.916;4.698;2022-10-16T00:52:46;14.10;99.90
22073;DHT22;11202;50.916;4.698;2022-10-16T00:55:13;14.00;99.90
22073;DHT22;11202;50.916;4.698;2022-10-16T00:57:43;13.90;99.90
22073;DHT22;11202;50.916;4.698;2022-10-16T01:00:12;14.00;99.90
22073;DHT22;11202;50.916;4.698;2022-10-16T01:02:38;14.00;99.90
22073;DHT22;11202;50.916;4.698;2022-10-16T01:05:07;13.90;99.90
22073;DHT22;11202;50.916;4.698;2022-10-16T01:10:39;13.90;99.90
22073;DHT22;11202;50.916;4.698;2022-10-16T01:13:21;13.90;99.90
22073;DHT22;11202;50.916;4.698;2022-10-16T01:16:07;13.90;99.90
22073;DHT22;11202;50.916;4.698;2022-10-16T01:18:54;13.90;99.90
22073;DHT22;11202;50.916;4.698;2022-10-16T01:21:27;14.00;99.90
22073;DHT22;11202;50.916;4.698;2022-10-16T01:27:23;13.90;99.90
22073;DHT22;11202;50.916;4.698;2022-10-16T01:30:01;13.90;99.90
22073;DHT22;11202;50.916;4.698;2022-10-16T01:32:43;13.80;99.90
22073;DHT22;11202;50.916;4.698;2022-10-16T01:40:34;13.90;99.90
22073;DHT22;11202;50.916;4.698;2022-10-16T01:43:22;13.90;99.90
22073;DHT22;11202;50.916;4.698;2022-10-16T01:45:52;13.90;99.90
22073;DHT22;11202;50.916;4.698;2022-10-16T01:48:19;13.90;99.90
22073;DHT22;11202;50.916;4.698;2022-10-16T01:51:11;13.90;99.90
22073;DHT22;11202;50.916;4.698;2022-10-16T01:53:42;14.00;99.90
22073;DHT22;11202;50.916;4.698;2022-10-16T01:56:11;14.00;99.90
22073;DHT22;11202;50.916;4.698;2022-10-16T01:58:42;13.90;99.90
22073;DHT22;11202;50.916;4.698;2022-10-16T02:01:15;13.90;99.90
22073;DHT22;11202;50.916;4.698;2022-10-16T02:03:43;13.90;99.90
22073;DHT22;11202;50.916;4.698;2022-10-16T02:06:10;13.90;99.90
22073;DHT22;11202;50.916;4.698;2022-10-16T02:08:37;13.80;99.90
22073;DHT22;11202;50.916;4.698;2022-10-16T02:11:04;13.90;99.90
22073;DHT22;11202;50.916;4.698;2022-10-16T02:16:00;13.80;99.90
22073;DHT22;11202;50.916;4.698;2022-10-16T02:18:26;13.90;99.90
22073;DHT22;11202;50.916;4.698;2022-10-16T02:26:16;13.80;99.90
22073;DHT22;11202;50.916;4.698;2022-10-16T02:28:54;13.80;99.90
22073;DHT22;11202;50.916;4.698;2022-10-16T02:31:26;13.80;99.90
22073;DHT22;11202;50.916;4.698;2022-10-16T02:33:57;13.80;99.90
22073;DHT22;11202;50.916;4.698;2022-10-16T02:36:25;13.90;99.90
22073;DHT22;11202;50.916;4.698;2022-10-16T02:38:52;13.80;99.90
22073;DHT22;11202;50.916;4.698;2022-10-16T02:41:21;13.80;99.90
22073;DHT22;11202;50.916;4.698;2022-10-16T02:43:47;13.80;99.90
22073;DHT22;11202;50.916;4.698;2022-10-16T02:46:15;13.80;99.90
22073;DHT22;11202;50.916;4.698;2022-10-16T02:48:42;13.70;99.90
22073;DHT22;11202;50.916;4.698;2022-10-16T02:51:08;13.70;99.90
22073;DHT22;11202;50.916;4.698;2022-10-16T02:53:38;13.60;99.90
22073;DHT22;11202;50.916;4.698;2022-10-16T02:56:04;13.70;99.90
22073;DHT22;11202;50.916;4.698;2022-10-16T02:58:32;13.60;99.90
22073;DHT22;11202;50.916;4.698;2022-10-16T03:00:58;13.60;99.90
22073;DHT22;11202;50.916;4.698;2022-10-16T03:03:27;13.60;99.90
22073;DHT22;11202;50.916;4.698;2022-10-16T03:05:53;13.60;99.90
22073;DHT22;11202;50.916;4.698;2022-10-16T03:08:20;13.60;99.90
22073;DHT22;11202;50.916;4.698;2022-10-16T03:10:51;13.70;99.90
22073;DHT22;11202;50.916;4.698;2022-10-16T03:13:17;13.70;99.90
22073;DHT22;11202;50.916;4.698;2022-10-16T03:15:45;13.80;99.90
22073;DHT22;11202;50.916;4.698;2022-10-16T03:18:11;13.70;99.90
22073;DHT22;11202;50.916;4.698;2022-10-16T03:20:36;13.70;99.90
22073;DHT22;11202;50.916;4.698;2022-10-16T03:23:05;13.70;99.90
22073;DHT22;11202;50.916;4.698;2022-10-16T03:25:33;13.70;99.90
22073;DHT22;11202;50.916;4.698;2022-10-16T03:28:02;13.70;99.90
22073;DHT22;11202;50.916;4.698;2022-10-16T03:30:30;13.70;99.90
22073;DHT22;11202;50.916;4.698;2022-10-16T03:32:59;13.80;99.90
22073;DHT22;11202;50.916;4.698;2022-10-16T03:35:24;13.80;99.90
22073;DHT22;11202;50.916;4.698;2022-10-16T03:37:52;13.70;99.90
22073;DHT22;11202;50.916;4.698;2022-10-16T03:40:19;13.70;99.90
22073;DHT22;11202;50.916;4.698;2022-10-16T03:42:44;13.70;99.90
22073;DHT22;11202;50.916;4.698;2022-10-16T03:45:13;13.60;99.90
22073;DHT22;11202;50.916;4.698;2022-10-16T03:47:38;13.70;99.90
22073;DHT22;11202;50.916;4.698;2022-10-16T03:50:05;13.70;99.90
22073;DHT22;11202;50.916;4.698;2022-10-16T03:52:31;13.70;99.90
22073;DHT22;11202;50.916;4.698;2022-10-16T03:54:57;13.60;99.90
22073;DHT22;11202;50.916;4.698;2022-10-16T03:57:28;13.60;99.90
22073;DHT22;11202;50.916;4.698;2022-10-16T03:59:53;13.70;99.90
22073;DHT22;11202;50.916;4.698;2022-10-16T04:02:19;13.60;99.90
22073;DHT22;11202;50.916;4.698;2022-10-16T04:04:45;13.70;99.90
22073;DHT22;11202;50.916;4.698;2022-10-16T04:07:13;13.70;99.90
22073;DHT22;11202;50.916;4.698;2022-10-16T04:09:41;13.80;99.90
22073;DHT22;11202;50.916;4.698;2022-10-16T04:12:08;13.80;99.90
22073;DHT22;11202;50.916;4.698;2022-10-16T04:14:34;13.80;99.90
22073;DHT22;11202;50.916;4.698;2022-10-16T04:17:02;13.80;99.90
22073;DHT22;11202;50.916;4.698;2022-10-16T04:19:28;13.80;99.90
22073;DHT22;11202;50.916;4.698;2022-10-16T04:21:53;13.80;99.90
22073;DHT22;11202;50.916;4.698;2022-10-16T04:24:19;13.80;99.90
22073;DHT22;11202;50.916;4.698;2022-10-16T04:26:47;13.80;99.90
22073;DHT22;11202;50.916;4.698;2022-10-16T04:29:13;13.70;99.90
22073;DHT22;11202;50.916;4.698;2022-10-16T04:31:39;13.70;99.90
22073;DHT22;11202;50.916;4.698;2022-10-16T04:34:07;13.80;99.90
22073;DHT22;11202;50.916;4.698;2022-10-16T04:36:35;13.80;99.90
22073;DHT22;11202;50.916;4.698;2022-10-16T04:39:01;13.70;99.90
22073;DHT22;11202;50.916;4.698;2022-10-16T04:41:27;13.70;99.90
22073;DHT22;11202;50.916;4.698;2022-10-16T04:43:52;13.70;99.90
22073;DHT22;11202;50.916;4.698;2022-10-16T04:46:18;13.70;99.90
22073;DHT22;11202;50.916;4.698;2022-10-16T04:48:44;13.70;99.90
22073;DHT22;11202;50.916;4.698;2022-10-16T04:51:10;13.70;99.90
22073;DHT22;11202;50.916;4.698;2022-10-16T04:53:36;13.70;99.90
22073;DHT22;11202;50.916;4.698;2022-10-16T04:56:02;13.60;99.90
22073;DHT22;11202;50.916;4.698;2022-10-16T04:58:28;13.60;99.90
22073;DHT22;11202;50.916;4.698;2022-10-16T05:00:54;13.60;99.90
22073;DHT22;11202;50.916;4.698;2022-10-16T05:03:19;13.70;99.90
22073;DHT22;11202;50.916;4.698;2022-10-16T05:05:47;13.60;99.90
22073;DHT22;11202;50.916;4.698;2022-10-16T05:08:19;13.60;99.90
22073;DHT22;11202;50.916;4.698;2022-10-16T05:10:45;13.60;99.90
22073;DHT22;11202;50.916;4.698;2022-10-16T05:13:13;13.50;99.90
22073;DHT22;11202;50.916;4.698;2022-10-16T05:15:39;13.50;99.90
22073;DHT22;11202;50.916;4.698;2022-10-16T05:18:05;13.50;99.90
22073;DHT22;11202;50.916;4.698;2022-10-16T05:20:33;13.60;99.90
22073;DHT22;11202;50.916;4.698;2022-10-16T05:22:59;13.60;99.90
22073;DHT22;11202;50.916;4.698;2022-10-16T05:25:24;13.60;99.90
22073;DHT22;11202;50.916;4.698;2022-10-16T05:27:50;13.50;99.90
22073;DHT22;11202;50.916;4.698;2022-10-16T05:30:17;13.40;99.90
22073;DHT22;11202;50.916;4.698;2022-10-16T05:32:47;13.40;99.90
22073;DHT22;11202;50.916;4.698;2022-10-16T05:35:13;13.30;99.90
22073;DHT22;11202;50.916;4.698;2022-10-16T05:37:39;13.40;99.90
22073;DHT22;11202;50.916;4.698;2022-10-16T05:40:08;13.30;99.90
22073;DHT22;11202;50.916;4.698;2022-10-16T05:42:34;13.40;99.90
22073;DHT22;11202;50.916;4.698;2022-10-16T05:44:59;13.40;99.90
22073;DHT22;11202;50.916;4.698;2022-10-16T05:47:25;13.30;99.90
22073;DHT22;11202;50.916;4.698;2022-10-16T05:49:54;13.40;99.90
22073;DHT22;11202;50.916;4.698;2022-10-16T05:52:19;13.40;99.90
22073;DHT22;11202;50.916;4.698;2022-10-16T05:54:45;13.40;99.90
22073;DHT22;11202;50.916;4.698;2022-10-16T05:57:11;13.40;99.90
22073;DHT22;11202;50.916;4.698;2022-10-16T05:59:39;13.30;99.90
22073;DHT22;11202;50.916;4.698;2022-10-16T06:02:05;13.20;99.90
22073;DHT22;11202;50.916;4.698;2022-10-16T06:04:31;13.20;99.90
22073;DHT22;11202;50.916;4.698;2022-10-16T06:06:59;13.20;99.90
22073;DHT22;11202;50.916;4.698;2022-10-16T06:09:28;13.20;99.90
22073;DHT22;11202;50.916;4.698;2022-10-16T06:11:54;13.20;99.90
22073;DHT22;11202;50.916;4.698;2022-10-16T06:14:23;13.20;99.90
22073;DHT22;11202;50.916;4.698;2022-10-16T06:16:51;13.20;99.90
22073;DHT22;11202;50.916;4.698;2022-10-16T06:19:16;13.20;99.90
22073;DHT22;11202;50.916;4.698;2022-10-16T06:21:43;13.30;99.90
22073;DHT22;11202;50.916;4.698;2022-10-16T06:24:09;13.30;99.90
22073;DHT22;11202;50.916;4.698;2022-10-16T06:26:35;13.30;99.90
22073;DHT22;11202;50.916;4.698;2022-10-16T06:29:03;13.30;99.90
22073;DHT22;11202;50.916;4.698;2022-10-16T06:31:29;13.40;99.90
22073;DHT22;11202;50.916;4.698;2022-10-16T06:33:56;13.40;99.90
22073;DHT22;11202;50.916;4.698;2022-10-16T06:36:24;13.40;99.90
22073;DHT22;11202;50.916;4.698;2022-10-16T06:38:50;13.40;99.90
22073;DHT22;11202;50.916;4.698;2022-10-16T06:41:19;13.40;99.90
22073;DHT22;11202;50.916;4.698;2022-10-16T06:43:48;13.40;99.90
22073;DHT22;11202;50.916;4.698;2022-10-16T06:46:19;13.50;99.90
22073;DHT22;11202;50.916;4.698;2022-10-16T06:48:46;13.40;99.90
22073;DHT22;11202;50.916;4.698;2022-10-16T06:51:14;13.50;99.90
22073;DHT22;11202;50.916;4.698;2022-10-16T06:53:44;13.60;99.90
22073;DHT22;11202;50.916;4.698;2022-10-16T06:58:41;13.70;99.90
22073;DHT22;11202;50.916;4.698;2022-10-16T07:01:07;13.70;99.90
22073;DHT22;11202;50.916;4.698;2022-10-16T07:03:35;13.80;99.90
22073;DHT22;11202;50.916;4.698;2022-10-16T07:06:06;14.00;99.90
22073;DHT22;11202;50.916;4.698;2022-10-16T07:08:36;14.30;99.90
22073;DHT22;11202;50.916;4.698;2022-10-16T07:11:05;15.00;99.90
22073;DHT22;11202;50.916;4.698;2022-10-16T07:13:41;16.00;99.90
22073;DHT22;11202;50.916;4.698;2022-10-16T07:16:09;16.80;99.90
22073;DHT22;11202;50.916;4.698;2022-10-16T07:18:35;17.70;99.90
22073;DHT22;11202;50.916;4.698;2022-10-16T07:21:15;18.30;99.90
22073;DHT22;11202;50.916;4.698;2022-10-16T07:23:45;18.40;99.90
22073;DHT22;11202;50.916;4.698;2022-10-16T07:26:13;18.10;99.90
22073;DHT22;11202;50.916;4.698;2022-10-16T07:28:38;17.50;99.90
22073;DHT22;11202;50.916;4.698;2022-10-16T07:31:13;17.00;99.90
22073;DHT22;11202;50.916;4.698;2022-10-16T07:33:40;17.00;99.90
22073;DHT22;11202;50.916;4.698;2022-10-16T07:36:09;17.00;99.90
22073;DHT22;11202;50.916;4.698;2022-10-16T07:38:35;16.80;99.90
22073;DHT22;11202;50.916;4.698;2022-10-16T07:41:05;16.50;99.90
22073;DHT22;11202;50.916;4.698;2022-10-16T07:43:31;16.20;99.90
22073;DHT22;11202;50.916;4.698;2022-10-16T07:45:57;16.90;99.90
22073;DHT22;11202;50.916;4.698;2022-10-16T07:48:27;17.50;99.90
22073;DHT22;11202;50.916;4.698;2022-10-16T07:50:59;17.90;99.90
22073;DHT22;11202;50.916;4.698;2022-10-16T07:53:26;18.30;99.90
22073;DHT22;11202;50.916;4.698;2022-10-16T07:55:57;18.50;99.90
22073;DHT22;11202;50.916;4.698;2022-10-16T07:58:23;18.50;99.90
22073;DHT22;11202;50.916;4.698;2022-10-16T08:00:49;18.40;99.90
22073;DHT22;11202;50.916;4.698;2022-10-16T08:03:15;18.50;99.90
22073;DHT22;11202;50.916;4.698;2022-10-16T08:05:40;18.80;99.90
22073;DHT22;11202;50.916;4.698;2022-10-16T08:08:10;18.80;99.90
22073;DHT22;11202;50.916;4.698;2022-10-16T08:10:39;18.80;99.90
22073;DHT22;11202;50.916;4.698;2022-10-16T08:13:05;19.00;99.90
22073;DHT22;11202;50.916;4.698;2022-10-16T08:15:31;19.10;99.90
22073;DHT22;11202;50.916;4.698;2022-10-16T08:18:02;19.40;99.90
22073;DHT22;11202;50.916;4.698;2022-10-16T08:20:29;19.50;99.90
22073;DHT22;11202;50.916;4.698;2022-10-16T08:22:55;19.90;99.90
22073;DHT22;11202;50.916;4.698;2022-10-16T08:25:24;20.20;99.90
22073;DHT22;11202;50.916;4.698;2022-10-16T08:27:52;20.40;99.90
22073;DHT22;11202;50.916;4.698;2022-10-16T08:30:19;20.40;99.90
22073;DHT22;11202;50.916;4.698;2022-10-16T08:32:45;20.30;99.90
22073;DHT22;11202;50.916;4.698;2022-10-16T08:35:14;20.60;99.90
22073;DHT22;11202;50.916;4.698;2022-10-16T08:37:41;20.50;99.90
22073;DHT22;11202;50.916;4.698;2022-10-16T08:40:25;20.70;99.90
22073;DHT22;11202;50.916;4.698;2022-10-16T08:48:24;20.70;99.90
22073;DHT22;11202;50.916;4.698;2022-10-16T08:50:54;20.70;99.90
22073;DHT22;11202;50.916;4.698;2022-10-16T08:53:28;21.10;99.90
22073;DHT22;11202;50.916;4.698;2022-10-16T08:55:55;21.50;99.90
22073;DHT22;11202;50.916;4.698;2022-10-16T08:58:27;21.30;99.90
22073;DHT22;11202;50.916;4.698;2022-10-16T09:01:01;21.30;99.90
22073;DHT22;11202;50.916;4.698;2022-10-16T09:09:15;20.70;99.90
22073;DHT22;11202;50.916;4.698;2022-10-16T09:11:50;20.80;99.90
22073;DHT22;11202;50.916;4.698;2022-10-16T09:14:55;20.80;99.90
22073;DHT22;11202;50.916;4.698;2022-10-16T09:23:19;20.90;99.90
22073;DHT22;11202;50.916;4.698;2022-10-16T09:25:49;21.60;99.90
22073;DHT22;11202;50.916;4.698;2022-10-16T09:28:17;21.50;99.90
22073;DHT22;11202;50.916;4.698;2022-10-16T09:30:43;21.30;99.90
22073;DHT22;11202;50.916;4.698;2022-10-16T09:33:11;21.60;99.90
22073;DHT22;11202;50.916;4.698;2022-10-16T09:35:43;21.40;99.90
22073;DHT22;11202;50.916;4.698;2022-10-16T09:38:24;21.10;99.90
22073;DHT22;11202;50.916;4.698;2022-10-16T09:41:19;21.30;99.90
22073;DHT22;11202;50.916;4.698;2022-10-16T09:43:57;21.70;99.90
22073;DHT22;11202;50.916;4.698;2022-10-16T09:46:31;22.10;99.90
22073;DHT22;11202;50.916;4.698;2022-10-16T09:49:20;22.00;99.90
22073;DHT22;11202;50.916;4.698;2022-10-16T09:51:48;21.70;99.90
22073;DHT22;11202;50.916;4.698;2022-10-16T09:54:17;21.60;99.90
22073;DHT22;11202;50.916;4.698;2022-10-16T09:56:44;21.70;99.90
22073;DHT22;11202;50.916;4.698;2022-10-16T09:59:21;21.80;99.90
22073;DHT22;11202;50.916;4.698;2022-10-16T10:01:54;21.60;99.90
22073;DHT22;11202;50.916;4.698;2022-10-16T10:04:23;21.60;99.90
22073;DHT22;11202;50.916;4.698;2022-10-16T10:06:56;21.50;99.90
22073;DHT22;11202;50.916;4.698;2022-10-16T10:09:47;21.30;99.90
22073;DHT22;11202;50.916;4.698;2022-10-16T10:12:24;21.30;99.90
22073;DHT22;11202;50.916;4.698;2022-10-16T10:14:56;21.20;99.90
22073;DHT22;11202;50.916;4.698;2022-10-16T10:17:24;21.00;99.90
22073;DHT22;11202;50.916;4.698;2022-10-16T10:19:55;20.80;99.90
22073;DHT22;11202;50.916;4.698;2022-10-16T10:30:39;21.00;99.90
22073;DHT22;11202;50.916;4.698;2022-10-16T10:33:28;21.00;99.90
22073;DHT22;11202;50.916;4.698;2022-10-16T10:46:48;20.80;99.90
22073;DHT22;11202;50.916;4.698;2022-10-16T10:59:48;21.00;99.90
22073;DHT22;11202;50.916;4.698;2022-10-16T11:02:31;21.20;99.90
22073;DHT22;11202;50.916;4.698;2022-10-16T11:08:00;21.30;99.90
22073;DHT22;11202;50.916;4.698;2022-10-16T11:10:33;21.10;99.90
22073;DHT22;11202;50.916;4.698;2022-10-16T11:13:26;21.00;99.90
22073;DHT22;11202;50.916;4.698;2022-10-16T11:15:58;20.70;99.90
22073;DHT22;11202;50.916;4.698;2022-10-16T11:18:44;20.60;99.90
22073;DHT22;11202;50.916;4.698;2022-10-16T11:21:14;20.60;99.90
22073;DHT22;11202;50.916;4.698;2022-10-16T11:23:51;20.50;99.90
22073;DHT22;11202;50.916;4.698;2022-10-16T11:26:29;20.70;99.90
22073;DHT22;11202;50.916;4.698;2022-10-16T11:28:56;20.80;99.90
22073;DHT22;11202;50.916;4.698;2022-10-16T11:31:40;20.90;99.90
22073;DHT22;11202;50.916;4.698;2022-10-16T11:34:31;20.90;99.90
22073;DHT22;11202;50.916;4.698;2022-10-16T11:39:38;20.70;99.90
22073;DHT22;11202;50.916;4.698;2022-10-16T11:42:11;20.70;99.90
22073;DHT22;11202;50.916;4.698;2022-10-16T11:49:43;20.30;99.90
22073;DHT22;11202;50.916;4.698;2022-10-16T11:52:25;20.50;99.90
22073;DHT22;11202;50.916;4.698;2022-10-16T11:55:12;20.60;99.90
22073;DHT22;11202;50.916;4.698;2022-10-16T11:57:45;20.60;99.90
22073;DHT22;11202;50.916;4.698;2022-10-16T12:03:55;20.50;99.90
22073;DHT22;11202;50.916;4.698;2022-10-16T12:05:58;20.50;99.90
22073;DHT22;11202;50.916;4.698;2022-10-16T12:08:26;20.40;99.90
22073;DHT22;11202;50.916;4.698;2022-10-16T12:11:05;20.40;99.90
22073;DHT22;11202;50.916;4.698;2022-10-16T12:13:35;20.40;99.90
22073;DHT22;11202;50.916;4.698;2022-10-16T12:16:21;20.40;99.90
22073;DHT22;11202;50.916;4.698;2022-10-16T12:18:48;20.80;99.90
22073;DHT22;11202;50.916;4.698;2022-10-16T12:21:15;21.10;99.90
22073;DHT22;11202;50.916;4.698;2022-10-16T12:23:49;21.30;99.90
22073;DHT22;11202;50.916;4.698;2022-10-16T12:26:28;21.40;99.90
22073;DHT22;11202;50.916;4.698;2022-10-16T12:29:12;21.40;99.90
22073;DHT22;11202;50.916;4.698;2022-10-16T12:31:46;21.30;99.90
22073;DHT22;11202;50.916;4.698;2022-10-16T12:34:29;21.30;99.90
22073;DHT22;11202;50.916;4.698;2022-10-16T12:37:20;21.30;99.90
22073;DHT22;11202;50.916;4.698;2022-10-16T12:39:47;21.40;99.90
22073;DHT22;11202;50.916;4.698;2022-10-16T12:44:52;21.30;99.90
22073;DHT22;11202;50.916;4.698;2022-10-16T12:47:35;21.30;99.90
22073;DHT22;11202;50.916;4.698;2022-10-16T12:50:01;21.20;99.90
22073;DHT22;11202;50.916;4.698;2022-10-16T12:52:38;21.40;99.90
22073;DHT22;11202;50.916;4.698;2022-10-16T12:55:09;21.50;99.90
22073;DHT22;11202;50.916;4.698;2022-10-16T13:00:35;21.50;99.90
22073;DHT22;11202;50.916;4.698;2022-10-16T13:06:20;21.60;99.90
22073;DHT22;11202;50.916;4.698;2022-10-16T13:11:56;21.50;99.90
22073;DHT22;11202;50.916;4.698;2022-10-16T13:17:40;21.30;99.90
22073;DHT22;11202;50.916;4.698;2022-10-16T13:23:04;21.30;99.90
22073;DHT22;11202;50.916;4.698;2022-10-16T13:28:06;21.60;99.90
22073;DHT22;11202;50.916;4.698;2022-10-16T13:30:43;21.80;99.90
22073;DHT22;11202;50.916;4.698;2022-10-16T13:33:17;22.00;99.90
22073;DHT22;11202;50.916;4.698;2022-10-16T13:35:51;22.10;99.90
22073;DHT22;11202;50.916;4.698;2022-10-16T13:38:23;22.00;99.90
22073;DHT22;11202;50.916;4.698;2022-10-16T13:43:38;21.30;99.90
22073;DHT22;11202;50.916;4.698;2022-10-16T13:46:10;21.40;99.90
22073;DHT22;11202;50.916;4.698;2022-10-16T13:48:37;21.60;99.90
22073;DHT22;11202;50.916;4.698;2022-10-16T13:53:32;21.90;99.90
22073;DHT22;11202;50.916;4.698;2022-10-16T13:55:59;22.30;99.90
22073;DHT22;11202;50.916;4.698;2022-10-16T13:58:45;22.10;99.90
22073;DHT22;11202;50.916;4.698;2022-10-16T14:01:20;22.00;99.90
22073;DHT22;11202;50.916;4.698;2022-10-16T14:03:49;21.80;99.90
22073;DHT22;11202;50.916;4.698;2022-10-16T14:06:17;21.60;99.90
22073;DHT22;11202;50.916;4.698;2022-10-16T14:08:59;21.40;99.90
22073;DHT22;11202;50.916;4.698;2022-10-16T14:11:25;21.30;99.90
22073;DHT22;11202;50.916;4.698;2022-10-16T14:13:52;21.20;99.90
22073;DHT22;11202;50.916;4.698;2022-10-16T14:16:27;21.10;99.90
22073;DHT22;11202;50.916;4.698;2022-10-16T14:18:56;21.00;99.90
22073;DHT22;11202;50.916;4.698;2022-10-16T14:21:24;20.80;99.90
22073;DHT22;11202;50.916;4.698;2022-10-16T14:23:50;20.80;99.90
22073;DHT22;11202;50.916;4.698;2022-10-16T14:26:19;20.90;99.90
22073;DHT22;11202;50.916;4.698;2022-10-16T14:28:47;20.50;99.90
22073;DHT22;11202;50.916;4.698;2022-10-16T14:33:45;20.00;99.90
22073;DHT22;11202;50.916;4.698;2022-10-16T14:36:18;19.80;99.90
22073;DHT22;11202;50.916;4.698;2022-10-16T14:39:17;19.70;99.90
22073;DHT22;11202;50.916;4.698;2022-10-16T14:41:47;19.70;99.90
22073;DHT22;11202;50.916;4.698;2022-10-16T14:44:13;20.00;99.90
22073;DHT22;11202;50.916;4.698;2022-10-16T14:46:43;19.80;99.90
22073;DHT22;11202;50.916;4.698;2022-10-16T14:51:39;19.90;99.90
22073;DHT22;11202;50.916;4.698;2022-10-16T14:54:10;19.80;99.90
22073;DHT22;11202;50.916;4.698;2022-10-16T14:56:57;19.70;99.90
22073;DHT22;11202;50.916;4.698;2022-10-16T14:59:36;19.50;99.90
22073;DHT22;11202;50.916;4.698;2022-10-16T15:02:34;19.90;99.90
22073;DHT22;11202;50.916;4.698;2022-10-16T15:07:37;19.90;99.90
22073;DHT22;11202;50.916;4.698;2022-10-16T15:10:04;19.60;99.90
22073;DHT22;11202;50.916;4.698;2022-10-16T15:12:32;19.20;99.90
22073;DHT22;11202;50.916;4.698;2022-10-16T15:14:58;19.30;99.90
22073;DHT22;11202;50.916;4.698;2022-10-16T15:17:24;19.30;99.90
22073;DHT22;11202;50.916;4.698;2022-10-16T15:19:49;19.40;99.90
22073;DHT22;11202;50.916;4.698;2022-10-16T15:22:16;19.20;99.90
22073;DHT22;11202;50.916;4.698;2022-10-16T15:24:42;19.40;99.90
22073;DHT22;11202;50.916;4.698;2022-10-16T15:27:09;19.60;99.90
22073;DHT22;11202;50.916;4.698;2022-10-16T15:29:34;19.60;99.90
22073;DHT22;11202;50.916;4.698;2022-10-16T15:32:00;19.40;99.90
22073;DHT22;11202;50.916;4.698;2022-10-16T15:34:28;19.40;99.90
22073;DHT22;11202;50.916;4.698;2022-10-16T15:36:54;19.30;99.90
22073;DHT22;11202;50.916;4.698;2022-10-16T15:39:25;19.60;99.90
22073;DHT22;11202;50.916;4.698;2022-10-16T15:41:53;19.50;99.90
22073;DHT22;11202;50.916;4.698;2022-10-16T15:44:20;19.30;99.90
22073;DHT22;11202;50.916;4.698;2022-10-16T15:46:48;19.10;99.90
22073;DHT22;11202;50.916;4.698;2022-10-16T15:49:18;18.90;99.90
22073;DHT22;11202;50.916;4.698;2022-10-16T15:51:44;18.90;99.90
22073;DHT22;11202;50.916;4.698;2022-10-16T15:54:11;19.00;99.90
22073;DHT22;11202;50.916;4.698;2022-10-16T15:56:37;18.80;99.90
22073;DHT22;11202;50.916;4.698;2022-10-16T15:59:04;18.40;99.90
22073;DHT22;11202;50.916;4.698;2022-10-16T16:01:34;18.30;99.90
22073;DHT22;11202;50.916;4.698;2022-10-16T16:04:00;18.20;99.90
22073;DHT22;11202;50.916;4.698;2022-10-16T16:06:26;18.30;99.90
22073;DHT22;11202;50.916;4.698;2022-10-16T16:08:54;18.40;99.90
22073;DHT22;11202;50.916;4.698;2022-10-16T16:11:22;18.60;99.90
22073;DHT22;11202;50.916;4.698;2022-10-16T16:13:49;18.40;99.90
22073;DHT22;11202;50.916;4.698;2022-10-16T16:16:16;18.30;99.90
22073;DHT22;11202;50.916;4.698;2022-10-16T16:18:44;18.20;99.90
22073;DHT22;11202;50.916;4.698;2022-10-16T16:21:12;18.20;99.90
22073;DHT22;11202;50.916;4.698;2022-10-16T16:23:38;18.20;99.90
22073;DHT22;11202;50.916;4.698;2022-10-16T16:26:13;18.20;99.90
22073;DHT22;11202;50.916;4.698;2022-10-16T16:28:42;18.20;99.90
22073;DHT22;11202;50.916;4.698;2022-10-16T16:31:10;18.10;99.90
22073;DHT22;11202;50.916;4.698;2022-10-16T16:33:36;17.90;99.90
22073;DHT22;11202;50.916;4.698;2022-10-16T16:36:06;17.90;99.90
22073;DHT22;11202;50.916;4.698;2022-10-16T16:38:34;18.10;99.90
22073;DHT22;11202;50.916;4.698;2022-10-16T16:41:14;18.30;99.90
22073;DHT22;11202;50.916;4.698;2022-10-16T16:43:39;18.10;99.90
22073;DHT22;11202;50.916;4.698;2022-10-16T16:46:06;17.90;99.90
22073;DHT22;11202;50.916;4.698;2022-10-16T16:48:31;17.70;99.90
22073;DHT22;11202;50.916;4.698;2022-10-16T16:51:05;17.80;99.90
22073;DHT22;11202;50.916;4.698;2022-10-16T16:53:35;17.70;99.90
22073;DHT22;11202;50.916;4.698;2022-10-16T16:56:03;17.40;99.90
22073;DHT22;11202;50.916;4.698;2022-10-16T16:58:30;17.30;99.90
22073;DHT22;11202;50.916;4.698;2022-10-16T17:00:56;17.20;99.90
22073;DHT22;11202;50.916;4.698;2022-10-16T17:03:26;17.10;99.90
22073;DHT22;11202;50.916;4.698;2022-10-16T17:06:07;17.10;99.90
22073;DHT22;11202;50.916;4.698;2022-10-16T17:08:34;17.10;99.90
22073;DHT22;11202;50.916;4.698;2022-10-16T17:11:01;17.20;99.90
22073;DHT22;11202;50.916;4.698;2022-10-16T17:13:28;17.30;99.90
22073;DHT22;11202;50.916;4.698;2022-10-16T17:15:55;17.60;99.90
22073;DHT22;11202;50.916;4.698;2022-10-16T17:18:23;18.00;99.90
22073;DHT22;11202;50.916;4.698;2022-10-16T17:20:50;18.20;99.90
22073;DHT22;11202;50.916;4.698;2022-10-16T17:23:17;18.00;99.90
22073;DHT22;11202;50.916;4.698;2022-10-16T17:25:46;17.60;99.90
22073;DHT22;11202;50.916;4.698;2022-10-16T17:28:14;17.30;99.90
22073;DHT22;11202;50.916;4.698;2022-10-16T17:30:40;16.90;99.90
22073;DHT22;11202;50.916;4.698;2022-10-16T17:33:10;16.70;99.90
22073;DHT22;11202;50.916;4.698;2022-10-16T17:35:44;16.40;99.90
22073;DHT22;11202;50.916;4.698;2022-10-16T17:38:11;16.10;99.90
22073;DHT22;11202;50.916;4.698;2022-10-16T17:40:41;16.00;99.90
22073;DHT22;11202;50.916;4.698;2022-10-16T17:43:07;15.80;99.90